createdAt,value
2023-03-20T00:00:30.565Z,101620.76
2023-03-20T00:01:31.336Z,101620.25
2023-03-20T00:02:32.022Z,101619.83
2023-03-20T00:03:32.838Z,101619.89
2023-03-20T00:04:33.502Z,101619.89
2023-03-20T00:05:34.468Z,101619.81
2023-03-20T00:06:35.174Z,101620.06
2023-03-20T00:06:44.289Z,101597.02
2023-03-20T00:07:44.900Z,101623.37
2023-03-20T00:08:45.513Z,101623.03
2023-03-20T00:09:46.192Z,101622.78
2023-03-20T00:10:46.953Z,101622.87
2023-03-20T00:11:47.668Z,101622.59
2023-03-20T00:12:48.331Z,101622.42
2023-03-20T00:13:49.020Z,101622.56
2023-03-20T00:14:49.740Z,101622.56
2023-03-20T00:15:50.666Z,101622.95
2023-03-20T00:16:51.596Z,101623.13
2023-03-20T00:17:00.724Z,101597.40
2023-03-20T00:18:01.091Z,101636.21
2023-03-20T00:19:01.852Z,101635.20
2023-03-20T00:20:02.465Z,101635.03
2023-03-20T00:21:03.141Z,101634.44
2023-03-20T00:22:03.906Z,101634.62
2023-03-20T00:23:04.580Z,101634.33
2023-03-20T00:24:05.338Z,101634.14
2023-03-20T00:25:06.040Z,101634.11
2023-03-20T00:26:06.822Z,101634.25
2023-03-20T00:27:07.511Z,101634.48
2023-03-20T00:27:16.167Z,101608.14
2023-03-20T00:28:16.825Z,101643.23
2023-03-20T00:29:17.508Z,101642.56
2023-03-20T00:30:18.197Z,101642.05
2023-03-20T00:31:19.252Z,101641.38
2023-03-20T00:32:19.891Z,101640.70
2023-03-20T00:33:20.577Z,101639.86
2023-03-20T00:34:21.311Z,101639.69
2023-03-20T00:35:22.061Z,101639.86
2023-03-20T00:36:23.031Z,101639.53
2023-03-20T00:37:23.870Z,101638.77
2023-03-20T00:38:24.731Z,101638.59
2023-03-20T00:38:33.256Z,101611.66
2023-03-20T00:39:33.863Z,101638.88
2023-03-20T00:40:34.539Z,101637.95
2023-03-20T00:41:35.138Z,101637.61
2023-03-20T00:42:36.044Z,101637.27
2023-03-20T00:43:36.590Z,101636.09
2023-03-20T00:44:38.408Z,101635.84
2023-03-20T00:45:38.101Z,101635.22
2023-03-20T00:46:38.728Z,101634.16
2023-03-20T00:47:39.285Z,101634.16
2023-03-20T00:48:39.966Z,101633.05
2023-03-20T00:48:48.625Z,101610.22
2023-03-20T00:49:49.230Z,101626.61
2023-03-20T00:50:49.879Z,101626.64
2023-03-20T00:51:50.565Z,101626.92
2023-03-20T00:52:51.302Z,101627.79
2023-03-20T00:53:52.079Z,101628.33
2023-03-20T00:54:52.740Z,101628.86
2023-03-20T00:55:53.521Z,101629.39
2023-03-20T00:56:54.091Z,101630.34
2023-03-20T00:57:54.767Z,101631.30
2023-03-20T00:58:55.617Z,101631.58
2023-03-20T00:59:04.273Z,101633.10
2023-03-20T01:00:04.879Z,101646.59
2023-03-20T01:01:05.537Z,101646.25
2023-03-20T01:02:06.327Z,101645.75
2023-03-20T01:03:07.051Z,101645.72
2023-03-20T01:04:07.809Z,101645.30
2023-03-20T01:05:08.436Z,101645.13
2023-03-20T01:06:09.012Z,101645.13
2023-03-20T01:07:09.621Z,101645.47
2023-03-20T01:08:10.242Z,101646.00
2023-03-20T01:09:10.961Z,101646.70
2023-03-20T01:10:11.674Z,101647.21
2023-03-20T01:11:12.495Z,101647.83
2023-03-20T01:11:21.085Z,101649.94
2023-03-20T01:12:21.786Z,101657.22
2023-03-20T01:13:22.561Z,101657.30
2023-03-20T01:14:24.230Z,101658.40
2023-03-20T01:15:25.054Z,101658.56
2023-03-20T01:16:24.736Z,101659.77
2023-03-20T01:17:24.492Z,101660.95
2023-03-20T01:18:25.430Z,101661.88
2023-03-20T01:19:26.415Z,101662.32
2023-03-20T01:20:26.955Z,101663.70
2023-03-20T01:21:27.677Z,101664.82
2023-03-20T01:22:28.390Z,101666.00
2023-03-20T01:23:29.109Z,101667.03
2023-03-20T01:23:41.716Z,101669.05
2023-03-20T01:24:42.337Z,101688.13
2023-03-20T01:25:43.055Z,101687.28
2023-03-20T01:26:43.783Z,101686.77
2023-03-20T01:27:44.659Z,101686.77
2023-03-20T01:28:45.429Z,101686.77
2023-03-20T01:29:46.096Z,101686.95
2023-03-20T01:30:46.988Z,101687.20
2023-03-20T01:31:47.686Z,101687.87
2023-03-20T01:32:48.499Z,101688.03
2023-03-20T01:33:49.062Z,101688.88
2023-03-20T01:34:49.670Z,101689.50
2023-03-20T01:34:58.290Z,101687.31
2023-03-20T01:35:59.198Z,101700.98
2023-03-20T01:36:59.819Z,101700.42
2023-03-20T01:38:00.502Z,101699.85
2023-03-20T01:39:01.349Z,101699.88
2023-03-20T01:40:02.300Z,101700.20
2023-03-20T01:41:02.876Z,101700.23
2023-03-20T01:42:03.469Z,101701.45
2023-03-20T01:43:04.160Z,101702.28
2023-03-20T01:44:04.865Z,101702.98
2023-03-20T01:45:05.663Z,101704.02
2023-03-20T01:46:06.419Z,101704.54
2023-03-20T01:46:15.030Z,101701.20
2023-03-20T01:47:15.944Z,101712.16
2023-03-20T01:48:16.685Z,101712.11
2023-03-20T01:49:17.461Z,101712.16
2023-03-20T01:50:18.203Z,101712.11
2023-03-20T01:51:18.877Z,101711.77
2023-03-20T01:52:20.568Z,101712.19
2023-03-20T01:53:20.233Z,101712.80
2023-03-20T01:54:20.922Z,101713.30
2023-03-20T01:55:21.606Z,101714.34
2023-03-20T01:56:22.587Z,101714.84
2023-03-20T01:57:22.860Z,101715.55
2023-03-20T01:58:23.710Z,101716.22
2023-03-20T01:58:32.332Z,101715.83
2023-03-20T01:59:32.967Z,101724.19
2023-03-20T02:00:32.973Z,101724.02
2023-03-20T02:01:33.705Z,101723.69
2023-03-20T02:02:34.379Z,101723.60
2023-03-20T02:03:35.009Z,101722.93
2023-03-20T02:04:35.882Z,101722.98
2023-03-20T02:05:36.677Z,101723.09
2023-03-20T02:06:37.347Z,101722.93
2023-03-20T02:07:38.122Z,101723.09
2023-03-20T02:08:38.720Z,101723.34
2023-03-20T02:08:54.625Z,101715.02
2023-03-20T02:09:54.667Z,101726.66
2023-03-20T02:10:55.321Z,101725.59
2023-03-20T02:11:56.152Z,101725.34
2023-03-20T02:12:56.828Z,101724.96
2023-03-20T02:13:57.441Z,101725.08
2023-03-20T02:14:58.222Z,101724.73
2023-03-20T02:15:58.776Z,101724.84
2023-03-20T02:16:59.689Z,101725.20
2023-03-20T02:18:00.292Z,101724.95
2023-03-20T02:19:00.997Z,101725.14
2023-03-20T02:19:09.647Z,101722.23
2023-03-20T02:20:09.876Z,101726.59
2023-03-20T02:21:10.501Z,101725.87
2023-03-20T02:22:11.264Z,101725.53
2023-03-20T02:23:12.067Z,101724.85
2023-03-20T02:24:12.719Z,101724.45
2023-03-20T02:25:13.492Z,101724.28
2023-03-20T02:26:14.260Z,101723.72
2023-03-20T02:27:14.957Z,101722.53
2023-03-20T02:28:15.559Z,101721.55
2023-03-20T02:29:16.244Z,101720.20
2023-03-20T02:29:24.900Z,101697.14
2023-03-20T02:30:25.526Z,101698.80
2023-03-20T02:31:26.208Z,101698.05
2023-03-20T02:32:26.904Z,101697.62
2023-03-20T02:33:27.546Z,101696.80
2023-03-20T02:34:28.209Z,101696.30
2023-03-20T02:35:29.002Z,101695.64
2023-03-20T02:36:29.625Z,101694.63
2023-03-20T02:37:30.245Z,101694.15
2023-03-20T02:38:30.978Z,101693.30
2023-03-20T02:39:31.619Z,101692.91
2023-03-20T02:40:32.357Z,101692.23
2023-03-20T02:41:32.638Z,101691.48
2023-03-20T02:41:41.624Z,101668.90
2023-03-20T02:42:42.526Z,101686.36
2023-03-20T02:43:43.193Z,101686.20
2023-03-20T02:44:43.839Z,101686.28
2023-03-20T02:45:44.504Z,101687.02
2023-03-20T02:46:45.220Z,101687.33
2023-03-20T02:47:46.170Z,101687.50
2023-03-20T02:48:46.993Z,101687.89
2023-03-20T02:49:47.650Z,101688.30
2023-03-20T02:50:47.809Z,101688.52
2023-03-20T02:51:48.463Z,101688.92
2023-03-20T02:52:49.200Z,101689.09
2023-03-20T02:52:57.807Z,101659.80
2023-03-20T02:53:58.574Z,101698.21
2023-03-20T02:54:59.227Z,101698.30
2023-03-20T02:56:00.110Z,101698.19
2023-03-20T02:57:00.708Z,101698.69
2023-03-20T02:58:01.334Z,101699.79
2023-03-20T02:59:02.102Z,101700.38
2023-03-20T03:00:02.697Z,101701.39
2023-03-20T03:01:03.520Z,101702.06
2023-03-20T03:02:04.266Z,101702.76
2023-03-20T03:03:04.971Z,101703.85
2023-03-20T03:03:13.538Z,101660.80
2023-03-20T03:04:14.441Z,101725.15
2023-03-20T03:05:15.166Z,101724.59
2023-03-20T03:06:15.873Z,101723.52
2023-03-20T03:07:16.565Z,101723.17
2023-03-20T03:08:17.235Z,101722.94
2023-03-20T03:09:17.976Z,101722.53
2023-03-20T03:10:18.626Z,101722.48
2023-03-20T03:11:19.320Z,101722.33
2023-03-20T03:12:20.001Z,101722.95
2023-03-20T03:13:20.984Z,101722.97
2023-03-20T03:14:21.628Z,101723.73
2023-03-20T03:14:30.230Z,101652.34
2023-03-20T03:15:30.921Z,101741.23
2023-03-20T03:16:31.567Z,101740.56
2023-03-20T03:17:32.135Z,101740.53
2023-03-20T03:18:32.792Z,101740.94
2023-03-20T03:19:33.431Z,101740.86
2023-03-20T03:20:34.083Z,101740.58
2023-03-20T03:21:34.786Z,101740.30
2023-03-20T03:22:35.435Z,101739.70
2023-03-20T03:23:35.847Z,101739.08
2023-03-20T03:24:42.459Z,101738.66
2023-03-20T03:24:47.673Z,101646.77
2023-03-20T03:26:19.296Z,101709.70
2023-03-20T03:27:14.531Z,101733.17
2023-03-20T03:28:15.285Z,101732.92
2023-03-20T03:29:15.307Z,101731.82
2023-03-20T03:30:15.877Z,101731.15
2023-03-20T03:31:16.808Z,101729.97
2023-03-20T03:32:16.652Z,101729.30
2023-03-20T03:33:17.495Z,101729.05
2023-03-20T03:34:18.125Z,101729.13
2023-03-20T03:35:18.738Z,101728.88
2023-03-20T03:36:19.460Z,101728.21
2023-03-20T03:36:28.099Z,101705.98
2023-03-20T03:37:28.774Z,101725.52
2023-03-20T03:38:29.527Z,101725.34
2023-03-20T03:39:30.258Z,101724.84
2023-03-20T03:40:30.915Z,101724.08
2023-03-20T03:41:31.649Z,101722.50
2023-03-20T03:42:32.271Z,101721.41
2023-03-20T03:43:32.809Z,101720.22
2023-03-20T03:44:33.576Z,101718.56
2023-03-20T03:45:34.477Z,101717.38
2023-03-20T03:46:35.072Z,101716.73
2023-03-20T03:46:45.115Z,101653.45
2023-03-20T03:47:44.357Z,101710.57
2023-03-20T03:48:45.150Z,101710.23
2023-03-20T03:49:45.927Z,101710.31
2023-03-20T03:50:46.488Z,101710.31
2023-03-20T03:51:47.181Z,101711.08
2023-03-20T03:52:47.896Z,101711.97
2023-03-20T03:53:48.677Z,101712.06
2023-03-20T03:54:49.345Z,101712.56
2023-03-20T03:55:50.088Z,101713.41
2023-03-20T03:56:50.911Z,101714.31
2023-03-20T03:57:51.591Z,101715.75
2023-03-20T03:58:00.186Z,101704.11
2023-03-20T03:59:01.071Z,101730.69
2023-03-20T04:00:01.746Z,101731.02
2023-03-20T04:01:02.475Z,101731.36
2023-03-20T04:02:03.205Z,101731.69
2023-03-20T04:03:03.892Z,101732.45
2023-03-20T04:04:05.036Z,101733.05
2023-03-20T04:05:05.340Z,101732.88
2023-03-20T04:06:06.012Z,101733.14
2023-03-20T04:07:06.830Z,101733.98
2023-03-20T04:08:07.483Z,101733.81
2023-03-20T04:08:16.105Z,101714.48
2023-03-20T04:09:16.781Z,101738.59
2023-03-20T04:10:17.434Z,101738.67
2023-03-20T04:11:18.041Z,101738.75
2023-03-20T04:12:19.011Z,101739.03
2023-03-20T04:13:19.681Z,101739.11
2023-03-20T04:14:20.450Z,101739.70
2023-03-20T04:15:21.343Z,101740.70
2023-03-20T04:16:22.107Z,101741.30
2023-03-20T04:17:22.878Z,101741.80
2023-03-20T04:18:23.548Z,101742.41
2023-03-20T04:18:32.171Z,101692.02
2023-03-20T04:19:32.884Z,101750.16
2023-03-20T04:20:33.551Z,101750.10
2023-03-20T04:21:34.328Z,101750.44
2023-03-20T04:22:35.466Z,101750.09
2023-03-20T04:23:35.272Z,101750.09
2023-03-20T04:24:35.932Z,101749.50
2023-03-20T04:25:36.995Z,101749.33
2023-03-20T04:26:37.702Z,101749.33
2023-03-20T04:27:38.543Z,101748.44
2023-03-20T04:28:39.280Z,101747.67
2023-03-20T04:28:47.899Z,101685.36
2023-03-20T04:29:48.609Z,101733.97
2023-03-20T04:30:49.396Z,101733.24
2023-03-20T04:31:50.195Z,101732.31
2023-03-20T04:32:50.855Z,101732.05
2023-03-20T04:33:51.486Z,101731.41
2023-03-20T04:34:52.223Z,101730.56
2023-03-20T04:35:52.997Z,101729.97
2023-03-20T04:36:53.656Z,101729.63
2023-03-20T04:37:54.344Z,101729.06
2023-03-20T04:38:57.590Z,101728.64
2023-03-20T04:39:56.038Z,101728.39
2023-03-20T04:40:05.133Z,101657.55
2023-03-20T04:41:05.824Z,101729.19
2023-03-20T04:42:06.704Z,101728.94
2023-03-20T04:43:07.362Z,101728.94
2023-03-20T04:44:08.072Z,101729.27
2023-03-20T04:45:08.870Z,101729.44
2023-03-20T04:46:09.774Z,101729.95
2023-03-20T04:47:09.841Z,101729.88
2023-03-20T04:48:10.720Z,101729.59
2023-03-20T04:49:11.470Z,101728.66
2023-03-20T04:50:12.146Z,101728.80
2023-03-20T04:51:12.805Z,101729.15
2023-03-20T04:51:21.420Z,101662.38
2023-03-20T04:52:22.447Z,101740.02
2023-03-20T04:53:25.453Z,101738.75
2023-03-20T04:54:24.050Z,101738.66
2023-03-20T04:55:24.790Z,101738.33
2023-03-20T04:56:25.558Z,101738.50
2023-03-20T04:57:26.328Z,101738.91
2023-03-20T04:58:27.018Z,101739.80
2023-03-20T04:59:27.684Z,101740.20
2023-03-20T05:00:28.558Z,101740.43
2023-03-20T05:01:28.553Z,101741.34
2023-03-20T05:02:29.259Z,101741.40
2023-03-20T05:02:37.884Z,101701.86
2023-03-20T05:03:38.543Z,101752.09
2023-03-20T05:04:39.210Z,101751.25
2023-03-20T05:05:39.924Z,101751.03
2023-03-20T05:06:40.785Z,101750.86
2023-03-20T05:07:40.934Z,101750.20
2023-03-20T05:08:41.860Z,101749.69
2023-03-20T05:09:42.605Z,101749.80
2023-03-20T05:10:42.591Z,101749.30
2023-03-20T05:11:42.673Z,101748.87
2023-03-20T05:12:43.623Z,101748.81
2023-03-20T05:13:44.565Z,101748.59
2023-03-20T05:13:53.188Z,101467.06
2023-03-20T05:14:54.074Z,101749.13
2023-03-20T05:15:54.735Z,101748.11
2023-03-20T05:16:55.561Z,101747.70
2023-03-20T05:17:55.513Z,101747.28
2023-03-20T05:18:56.365Z,101746.77
2023-03-20T05:19:56.378Z,101746.83
2023-03-20T05:20:57.253Z,101746.41
2023-03-20T05:21:57.349Z,101746.16
2023-03-20T05:22:57.370Z,101746.08
2023-03-20T05:23:57.396Z,101745.63
2023-03-20T05:24:57.415Z,101745.97
2023-03-20T05:25:06.009Z,101741.13
2023-03-20T05:26:06.791Z,101741.86
2023-03-20T05:27:07.555Z,101742.03
2023-03-20T05:28:08.496Z,101742.02
2023-03-20T05:29:09.350Z,101742.27
2023-03-20T05:30:10.227Z,101742.02
2023-03-20T05:31:11.308Z,101741.75
2023-03-20T05:32:12.109Z,101741.78
2023-03-20T05:33:12.887Z,101741.95
2023-03-20T05:34:12.886Z,101741.80
2023-03-20T05:35:13.824Z,101741.97
2023-03-20T05:36:13.862Z,101741.83
2023-03-20T05:36:22.908Z,101695.10
2023-03-20T05:37:23.547Z,101743.08
2023-03-20T05:38:24.226Z,101742.52
2023-03-20T05:39:24.926Z,101742.27
2023-03-20T05:40:25.594Z,101742.09
2023-03-20T05:41:26.333Z,101742.28
2023-03-20T05:42:27.037Z,101742.39
2023-03-20T05:43:27.685Z,101742.16
2023-03-20T05:44:28.477Z,101742.48
2023-03-20T05:45:29.210Z,101742.57
2023-03-20T05:46:29.994Z,101743.08
2023-03-20T05:47:30.558Z,101743.36
2023-03-20T05:47:39.630Z,101685.31
2023-03-20T05:48:40.275Z,101755.09
2023-03-20T05:49:40.450Z,101754.59
2023-03-20T05:50:41.139Z,101754.25
2023-03-20T05:51:41.258Z,101754.25
2023-03-20T05:52:42.045Z,101754.17
2023-03-20T05:53:42.793Z,101753.78
2023-03-20T05:54:43.550Z,101752.84
2023-03-20T05:55:44.548Z,101752.34
2023-03-20T05:56:45.369Z,101751.84
2023-03-20T05:57:45.975Z,101751.41
2023-03-20T05:58:46.682Z,101750.81
2023-03-20T05:58:55.266Z,101582.78
2023-03-20T05:59:55.951Z,101754.28
2023-03-20T06:00:56.790Z,101753.94
2023-03-20T06:01:57.526Z,101752.94
2023-03-20T06:02:58.435Z,101752.66
2023-03-20T06:03:59.185Z,101752.06
2023-03-20T06:04:59.824Z,101751.31
2023-03-20T06:06:00.539Z,101750.61
2023-03-20T06:07:01.269Z,101750.28
2023-03-20T06:08:02.082Z,101749.92
2023-03-20T06:09:02.881Z,101748.83
2023-03-20T06:10:03.670Z,101748.30
2023-03-20T06:10:12.274Z,101629.97
2023-03-20T06:11:13.178Z,101737.72
2023-03-20T06:12:13.910Z,101737.72
2023-03-20T06:13:14.615Z,101737.12
2023-03-20T06:14:15.245Z,101736.62
2023-03-20T06:15:15.879Z,101736.46
2023-03-20T06:16:16.693Z,101736.44
2023-03-20T06:17:17.373Z,101735.84
2023-03-20T06:18:18.066Z,101735.31
2023-03-20T06:19:18.733Z,101734.48
2023-03-20T06:20:19.491Z,101733.70
2023-03-20T06:20:28.607Z,101629.63
2023-03-20T06:21:29.578Z,101736.33
2023-03-20T06:22:29.631Z,101735.15
2023-03-20T06:23:30.320Z,101734.14
2023-03-20T06:24:30.978Z,101733.61
2023-03-20T06:25:31.764Z,101732.94
2023-03-20T06:26:32.421Z,101732.50
2023-03-20T06:27:33.187Z,101731.55
2023-03-20T06:28:33.899Z,101730.69
2023-03-20T06:29:34.686Z,101729.91
2023-03-20T06:30:34.808Z,101729.44
2023-03-20T06:31:35.724Z,101729.17
2023-03-20T06:31:44.732Z,101674.75
2023-03-20T06:32:45.553Z,101737.28
2023-03-20T06:33:46.210Z,101736.44
2023-03-20T06:34:46.895Z,101735.73
2023-03-20T06:35:47.777Z,101735.66
2023-03-20T06:36:48.399Z,101735.72
2023-03-20T06:37:49.058Z,101735.35
2023-03-20T06:38:49.712Z,101735.50
2023-03-20T06:39:50.497Z,101734.80
2023-03-20T06:40:51.340Z,101734.53
2023-03-20T06:41:52.096Z,101734.22
2023-03-20T06:42:52.906Z,101734.04
2023-03-20T06:43:01.542Z,101718.64
2023-03-20T06:44:02.516Z,101743.55
2023-03-20T06:45:02.965Z,101743.04
2023-03-20T06:46:03.094Z,101743.19
2023-03-20T06:47:04.801Z,101742.77
2023-03-20T06:48:04.590Z,101742.73
2023-03-20T06:49:05.491Z,101742.91
2023-03-20T06:50:06.376Z,101743.30
2023-03-20T06:51:07.077Z,101743.05
2023-03-20T06:52:08.085Z,101742.63
2023-03-20T06:53:08.895Z,101742.77
2023-03-20T06:53:17.563Z,101618.80
2023-03-20T06:54:18.363Z,101739.19
2023-03-20T06:55:19.070Z,101739.24
2023-03-20T06:56:19.827Z,101739.41
2023-03-20T06:57:20.510Z,101739.72
2023-03-20T06:58:21.377Z,101740.66
2023-03-20T06:59:22.171Z,101741.22
2023-03-20T07:00:22.836Z,101741.39
2023-03-20T07:01:23.697Z,101741.87
2023-03-20T07:02:23.672Z,101741.95
2023-03-20T07:03:24.496Z,101742.60
2023-03-20T07:04:25.167Z,101742.86
2023-03-20T07:04:34.388Z,101637.52
2023-03-20T07:05:35.415Z,101749.98
2023-03-20T07:06:35.853Z,101749.73
2023-03-20T07:07:36.515Z,101749.55
2023-03-20T07:08:37.371Z,101749.27
2023-03-20T07:09:38.061Z,101749.02
2023-03-20T07:10:38.721Z,101749.95
2023-03-20T07:11:39.495Z,101749.92
2023-03-20T07:12:40.242Z,101749.49
2023-03-20T07:13:41.042Z,101749.02
2023-03-20T07:14:41.939Z,101748.76
2023-03-20T07:14:51.105Z,101596.02
2023-03-20T07:16:03.646Z,101741.47
2023-03-20T07:16:52.884Z,101740.97
2023-03-20T07:17:53.626Z,101740.80
2023-03-20T07:18:54.378Z,101740.85
2023-03-20T07:19:54.990Z,101740.12
2023-03-20T07:20:55.696Z,101739.95
2023-03-20T07:21:56.445Z,101740.34
2023-03-20T07:22:57.179Z,101739.93
2023-03-20T07:23:57.907Z,101740.19
2023-03-20T07:24:58.585Z,101740.16
2023-03-20T07:25:07.213Z,101664.88
2023-03-20T07:26:07.974Z,101732.93
2023-03-20T07:27:08.668Z,101733.05
2023-03-20T07:28:09.478Z,101733.44
2023-03-20T07:29:10.348Z,101733.24
2023-03-20T07:30:11.084Z,101733.81
2023-03-20T07:31:11.922Z,101734.09
2023-03-20T07:32:12.498Z,101734.23
2023-03-20T07:33:13.457Z,101734.95
2023-03-20T07:34:14.214Z,101735.59
2023-03-20T07:35:15.133Z,101735.88
2023-03-20T07:36:16.061Z,101736.03
2023-03-20T07:36:24.683Z,101662.38
2023-03-20T07:37:25.307Z,101752.83
2023-03-20T07:38:26.131Z,101752.06
2023-03-20T07:39:26.771Z,101751.81
2023-03-20T07:40:27.592Z,101751.11
2023-03-20T07:41:28.469Z,101749.98
2023-03-20T07:42:29.144Z,101749.96
2023-03-20T07:43:29.939Z,101750.05
2023-03-20T07:44:30.655Z,101750.44
2023-03-20T07:45:31.520Z,101750.84
2023-03-20T07:46:32.146Z,101750.59
2023-03-20T07:46:40.802Z,101610.92
2023-03-20T07:47:41.500Z,101758.99
2023-03-20T07:48:42.154Z,101758.60
2023-03-20T07:49:42.941Z,101758.52
2023-03-20T07:50:43.667Z,101758.43
2023-03-20T07:51:44.409Z,101758.52
2023-03-20T07:52:45.094Z,101757.95
2023-03-20T07:53:45.927Z,101757.87
2023-03-20T07:54:46.599Z,101757.70
2023-03-20T07:55:47.357Z,101758.12
2023-03-20T07:56:48.160Z,101758.03
2023-03-20T07:56:56.809Z,101631.88
2023-03-20T07:57:57.555Z,101771.70
2023-03-20T07:58:58.407Z,101771.92
2023-03-20T07:59:59.196Z,101772.05
2023-03-20T08:00:59.333Z,101772.05
2023-03-20T08:01:59.406Z,101772.37
2023-03-20T08:03:00.350Z,101772.77
2023-03-20T08:04:01.268Z,101772.86
2023-03-20T08:05:02.037Z,101773.36
2023-03-20T08:06:02.857Z,101773.62
2023-03-20T08:07:03.705Z,101774.34
2023-03-20T08:07:12.362Z,101584.41
2023-03-20T08:08:13.086Z,101785.37
2023-03-20T08:09:13.950Z,101784.98
2023-03-20T08:10:14.685Z,101785.20
2023-03-20T08:11:15.422Z,101785.12
2023-03-20T08:12:16.318Z,101785.28
2023-03-20T08:13:17.020Z,101785.71
2023-03-20T08:14:17.767Z,101785.80
2023-03-20T08:15:18.444Z,101786.19
2023-03-20T08:16:19.274Z,101786.59
2023-03-20T08:17:21.725Z,101786.30
2023-03-20T08:17:29.167Z,101672.70
2023-03-20T08:18:29.896Z,101795.54
2023-03-20T08:19:29.968Z,101795.03
2023-03-20T08:20:30.754Z,101795.17
2023-03-20T08:21:31.656Z,101795.65
2023-03-20T08:22:32.481Z,101795.77
2023-03-20T08:23:33.257Z,101795.28
2023-03-20T08:24:34.034Z,101794.72
2023-03-20T08:25:35.295Z,101794.12
2023-03-20T08:26:35.585Z,101794.16
2023-03-20T08:27:36.394Z,101793.69
2023-03-20T08:27:46.084Z,101554.63
2023-03-20T08:28:48.435Z,101787.61
2023-03-20T08:29:47.419Z,101787.44
2023-03-20T08:30:48.261Z,101786.92
2023-03-20T08:31:49.095Z,101787.05
2023-03-20T08:32:49.927Z,101786.88
2023-03-20T08:33:50.763Z,101786.25
2023-03-20T08:34:51.559Z,101786.00
2023-03-20T08:35:52.423Z,101785.75
2023-03-20T08:36:53.317Z,101785.61
2023-03-20T08:37:54.202Z,101785.94
2023-03-20T08:38:55.105Z,101786.17
2023-03-20T08:39:55.841Z,101786.11
2023-03-20T08:40:05.400Z,101561.24
2023-03-20T08:41:06.142Z,101789.37
2023-03-20T08:42:07.057Z,101788.75
2023-03-20T08:43:07.724Z,101788.72
2023-03-20T08:44:08.444Z,101788.61
2023-03-20T08:45:09.234Z,101788.41
2023-03-20T08:46:10.067Z,101787.78
2023-03-20T08:47:10.795Z,101787.61
2023-03-20T08:48:11.518Z,101787.58
2023-03-20T08:49:12.361Z,101787.30
2023-03-20T08:50:13.112Z,101787.17
2023-03-20T08:51:14.053Z,101787.62
2023-03-20T08:51:22.648Z,101605.77
2023-03-20T08:52:22.721Z,101793.84
2023-03-20T08:53:23.432Z,101793.62
2023-03-20T08:54:24.295Z,101794.02
2023-03-20T08:55:25.082Z,101794.23
2023-03-20T08:56:25.982Z,101794.93
2023-03-20T08:57:26.648Z,101795.74
2023-03-20T08:58:27.515Z,101797.15
2023-03-20T08:59:28.419Z,101798.08
2023-03-20T09:00:28.660Z,101799.15
2023-03-20T09:01:46.018Z,101800.70
2023-03-20T09:01:49.132Z,101652.25
2023-03-20T09:02:38.994Z,101817.78
2023-03-20T09:03:39.358Z,101818.03
2023-03-20T09:04:40.030Z,101818.20
2023-03-20T09:05:40.821Z,101818.27
2023-03-20T09:06:41.632Z,101819.14
2023-03-20T09:07:42.480Z,101820.00
2023-03-20T09:08:44.328Z,101820.66
2023-03-20T09:09:43.715Z,101821.90
2023-03-20T09:10:44.500Z,101823.27
2023-03-20T09:11:44.675Z,101825.19
2023-03-20T09:11:53.289Z,101775.42
2023-03-20T09:12:53.465Z,101846.55
2023-03-20T09:13:53.479Z,101846.47
2023-03-20T09:14:54.269Z,101846.97
2023-03-20T09:15:55.089Z,101847.48
2023-03-20T09:16:55.303Z,101847.73
2023-03-20T09:17:56.065Z,101848.58
2023-03-20T09:18:56.812Z,101849.15
2023-03-20T09:19:57.534Z,101850.11
2023-03-20T09:20:58.292Z,101851.52
2023-03-20T09:21:59.122Z,101852.34
2023-03-20T09:22:59.294Z,101853.84
2023-03-20T09:23:08.927Z,101801.06
2023-03-20T09:24:09.228Z,101866.45
2023-03-20T09:25:09.963Z,101866.11
2023-03-20T09:26:10.775Z,101865.59
2023-03-20T09:27:11.547Z,101865.88
2023-03-20T09:28:12.295Z,101865.94
2023-03-20T09:29:13.176Z,101866.08
2023-03-20T09:30:14.074Z,101867.32
2023-03-20T09:31:14.843Z,101867.52
2023-03-20T09:32:15.523Z,101868.22
2023-03-20T09:33:16.326Z,101868.61
2023-03-20T09:33:24.934Z,101838.16
2023-03-20T09:34:25.646Z,101879.48
2023-03-20T09:35:26.660Z,101879.41
2023-03-20T09:36:26.752Z,101879.09
2023-03-20T09:37:28.667Z,101879.10
2023-03-20T09:38:28.402Z,101879.22
2023-03-20T09:39:29.094Z,101878.46
2023-03-20T09:40:29.807Z,101877.62
2023-03-20T09:41:30.566Z,101878.13
2023-03-20T09:42:31.364Z,101877.70
2023-03-20T09:43:32.111Z,101877.99
2023-03-20T09:44:32.786Z,101877.44
2023-03-20T09:44:41.401Z,101822.41
2023-03-20T09:45:42.145Z,101885.32
2023-03-20T09:46:42.328Z,101884.81
2023-03-20T09:47:42.302Z,101884.70
2023-03-20T09:48:43.036Z,101885.03
2023-03-20T09:49:43.849Z,101884.59
2023-03-20T09:50:44.580Z,101884.81
2023-03-20T09:51:45.401Z,101885.29
2023-03-20T09:52:46.232Z,101885.66
2023-03-20T09:53:46.875Z,101885.94
2023-03-20T09:54:54.496Z,101886.44
2023-03-20T09:55:48.293Z,101887.45
2023-03-20T09:55:56.909Z,101913.68
2023-03-20T09:56:57.656Z,101891.20
2023-03-20T09:57:58.463Z,101891.97
2023-03-20T09:58:59.124Z,101892.22
2023-03-20T10:00:00.019Z,101892.76
2023-03-20T10:01:00.677Z,101894.23
2023-03-20T10:02:01.386Z,101895.19
2023-03-20T10:03:02.242Z,101896.84
2023-03-20T10:04:03.118Z,101897.52
2023-03-20T10:05:03.838Z,101898.26
2023-03-20T10:06:04.699Z,101899.41
2023-03-20T10:06:13.308Z,101941.92
2023-03-20T10:07:14.127Z,101915.88
2023-03-20T10:08:16.224Z,101915.54
2023-03-20T10:09:15.651Z,101915.74
2023-03-20T10:10:16.340Z,101915.83
2023-03-20T10:11:17.173Z,101915.60
2023-03-20T10:12:17.864Z,101916.26
2023-03-20T10:13:18.718Z,101916.51
2023-03-20T10:14:19.442Z,101917.10
2023-03-20T10:15:20.306Z,101917.27
2023-03-20T10:16:21.185Z,101917.89
2023-03-20T10:17:21.776Z,101917.89
2023-03-20T10:17:30.893Z,101945.25
2023-03-20T10:18:31.718Z,101917.93
2023-03-20T10:19:32.558Z,101918.44
2023-03-20T10:20:33.302Z,101919.54
2023-03-20T10:21:34.004Z,101920.41
2023-03-20T10:22:34.829Z,101921.34
2023-03-20T10:23:35.676Z,101922.36
2023-03-20T10:24:36.454Z,101923.83
2023-03-20T10:25:37.161Z,101925.57
2023-03-20T10:26:38.012Z,101926.33
2023-03-20T10:27:38.763Z,101927.09
2023-03-20T10:28:39.584Z,101928.12
2023-03-20T10:28:48.583Z,101963.41
2023-03-20T10:29:48.753Z,101946.28
2023-03-20T10:30:49.050Z,101945.97
2023-03-20T10:31:49.897Z,101945.97
2023-03-20T10:32:50.739Z,101946.34
2023-03-20T10:33:51.524Z,101947.11
2023-03-20T10:34:52.208Z,101948.02
2023-03-20T10:35:53.101Z,101949.23
2023-03-20T10:36:53.870Z,101949.82
2023-03-20T10:37:54.570Z,101950.67
2023-03-20T10:38:55.580Z,101952.06
2023-03-20T10:39:06.703Z,101979.89
2023-03-20T10:40:05.771Z,101959.25
2023-03-20T10:41:06.665Z,101958.89
2023-03-20T10:42:07.500Z,101959.52